sensor_id;sensor_type;location;lat;lon;timestamp;P1;durP1;ratioP1;P2;durP2;ratioP2
19623;SDS011;9959;49.798;9.928;2024-03-23T00:54:28;17.08;;;10.27;;
19623;SDS011;9959;49.798;9.928;2024-03-23T00:56:54;21.02;;;10.13;;
19623;SDS011;9959;49.798;9.928;2024-03-23T00:59:19;19.98;;;11.10;;
19623;SDS011;9959;49.798;9.928;2024-03-23T01:01:47;20.45;;;10.50;;
19623;SDS011;9959;49.798;9.928;2024-03-23T01:04:13;20.13;;;11.10;;
19623;SDS011;9959;49.798;9.928;2024-03-23T01:06:38;17.27;;;10.52;;
19623;SDS011;9959;49.798;9.928;2024-03-23T01:09:04;17.85;;;11.32;;
19623;SDS011;9959;49.798;9.928;2024-03-23T01:11:30;15.75;;;9.63;;
19623;SDS011;9959;49.798;9.928;2024-03-23T01:13:56;19.25;;;10.77;;
19623;SDS011;9959;49.798;9.928;2024-03-23T01:16:22;19.13;;;10.50;;
19623;SDS011;9959;49.798;9.928;2024-03-23T01:18:47;22.15;;;11.32;;
19623;SDS011;9959;49.798;9.928;2024-03-23T01:21:14;22.00;;;12.00;;
19623;SDS011;9959;49.798;9.928;2024-03-23T01:23:40;18.45;;;11.38;;
19623;SDS011;9959;49.798;9.928;2024-03-23T01:26:05;21.08;;;10.73;;
19623;SDS011;9959;49.798;9.928;2024-03-23T01:28:31;21.05;;;11.43;;
19623;SDS011;9959;49.798;9.928;2024-03-23T01:30:57;20.85;;;11.20;;
19623;SDS011;9959;49.798;9.928;2024-03-23T01:33:23;17.23;;;10.45;;
19623;SDS011;9959;49.798;9.928;2024-03-23T01:35:48;21.55;;;10.80;;
19623;SDS011;9959;49.798;9.928;2024-03-23T01:38:14;18.95;;;10.93;;
19623;SDS011;9959;49.798;9.928;2024-03-23T01:40:43;22.08;;;10.02;;
19623;SDS011;9959;49.798;9.928;2024-03-23T01:43:09;25.70;;;12.05;;
19623;SDS011;9959;49.798;9.928;2024-03-23T01:45:35;18.35;;;10.85;;
19623;SDS011;9959;49.798;9.928;2024-03-23T01:48:02;18.85;;;10.20;;
19623;SDS011;9959;49.798;9.928;2024-03-23T01:50:28;18.95;;;10.93;;
19623;SDS011;9959;49.798;9.928;2024-03-23T01:52:58;19.80;;;10.52;;
19623;SDS011;9959;49.798;9.928;2024-03-23T01:55:26;17.73;;;10.45;;
19623;SDS011;9959;49.798;9.928;2024-03-23T01:57:52;19.00;;;10.95;;
19623;SDS011;9959;49.798;9.928;2024-03-23T02:00:18;19.38;;;11.52;;
19623;SDS011;9959;49.798;9.928;2024-03-23T02:02:45;23.90;;;11.35;;
19623;SDS011;9959;49.798;9.928;2024-03-23T02:05:13;20.75;;;10.88;;
19623;SDS011;9959;49.798;9.928;2024-03-23T02:07:40;18.42;;;10.45;;
19623;SDS011;9959;49.798;9.928;2024-03-23T02:10:07;21.73;;;10.88;;
19623;SDS011;9959;49.798;9.928;2024-03-23T02:12:35;18.73;;;10.90;;
19623;SDS011;9959;49.798;9.928;2024-03-23T02:15:01;20.33;;;10.13;;
19623;SDS011;9959;49.798;9.928;2024-03-23T02:17:27;20.10;;;10.18;;
19623;SDS011;9959;49.798;9.928;2024-03-23T02:19:54;23.30;;;10.75;;
19623;SDS011;9959;49.798;9.928;2024-03-23T02:22:20;17.35;;;9.82;;
19623;SDS011;9959;49.798;9.928;2024-03-23T02:24:46;17.25;;;10.70;;
19623;SDS011;9959;49.798;9.928;2024-03-23T02:27:12;17.65;;;10.75;;
19623;SDS011;9959;49.798;9.928;2024-03-23T02:29:38;20.05;;;10.18;;
19623;SDS011;9959;49.798;9.928;2024-03-23T02:32:03;17.27;;;10.55;;
19623;SDS011;9959;49.798;9.928;2024-03-23T02:34:31;15.45;;;9.52;;
19623;SDS011;9959;49.798;9.928;2024-03-23T02:36:57;21.75;;;10.82;;
19623;SDS011;9959;49.798;9.928;2024-03-23T02:39:23;15.95;;;9.40;;
19623;SDS011;9959;49.798;9.928;2024-03-23T02:41:48;17.30;;;10.77;;
19623;SDS011;9959;49.798;9.928;2024-03-23T02:44:14;17.88;;;10.48;;
19623;SDS011;9959;49.798;9.928;2024-03-23T02:46:40;17.25;;;10.27;;
19623;SDS011;9959;49.798;9.928;2024-03-23T02:49:06;16.73;;;10.65;;
19623;SDS011;9959;49.798;9.928;2024-03-23T02:51:32;21.38;;;10.93;;
19623;SDS011;9959;49.798;9.928;2024-03-23T02:53:58;21.25;;;10.75;;
19623;SDS011;9959;49.798;9.928;2024-03-23T02:56:24;22.75;;;10.48;;
19623;SDS011;9959;49.798;9.928;2024-03-23T02:58:49;16.63;;;10.13;;
19623;SDS011;9959;49.798;9.928;2024-03-23T03:01:15;17.10;;;10.55;;
19623;SDS011;9959;49.798;9.928;2024-03-23T03:03:41;17.10;;;10.32;;
19623;SDS011;9959;49.798;9.928;2024-03-23T03:06:08;19.63;;;11.05;;
19623;SDS011;9959;49.798;9.928;2024-03-23T03:08:34;24.80;;;10.68;;
19623;SDS011;9959;49.798;9.928;2024-03-23T03:11:00;18.45;;;9.85;;
19623;SDS011;9959;49.798;9.928;2024-03-23T03:13:26;16.45;;;9.48;;
19623;SDS011;9959;49.798;9.928;2024-03-23T03:15:52;18.10;;;10.07;;
19623;SDS011;9959;49.798;9.928;2024-03-23T03:18:18;17.48;;;9.50;;
19623;SDS011;9959;49.798;9.928;2024-03-23T03:20:45;18.50;;;10.27;;
19623;SDS011;9959;49.798;9.928;2024-03-23T03:23:11;17.58;;;9.73;;
19623;SDS011;9959;49.798;9.928;2024-03-23T03:25:37;16.63;;;9.88;;
19623;SDS011;9959;49.798;9.928;2024-03-23T03:28:03;17.48;;;10.00;;
19623;SDS011;9959;49.798;9.928;2024-03-23T03:30:29;18.10;;;9.68;;
19623;SDS011;9959;49.798;9.928;2024-03-23T03:32:55;23.00;;;9.57;;
19623;SDS011;9959;49.798;9.928;2024-03-23T03:35:21;15.82;;;9.43;;
19623;SDS011;9959;49.798;9.928;2024-03-23T03:37:47;19.75;;;9.80;;
19623;SDS011;9959;49.798;9.928;2024-03-23T03:40:13;17.00;;;9.85;;
19623;SDS011;9959;49.798;9.928;2024-03-23T03:42:40;15.68;;;9.85;;
19623;SDS011;9959;49.798;9.928;2024-03-23T03:45:07;16.67;;;9.73;;
19623;SDS011;9959;49.798;9.928;2024-03-23T03:47:33;17.75;;;9.52;;
19623;SDS011;9959;49.798;9.928;2024-03-23T03:49:59;19.77;;;10.05;;
19623;SDS011;9959;49.798;9.928;2024-03-23T03:52:25;14.73;;;8.93;;
19623;SDS011;9959;49.798;9.928;2024-03-23T03:54:50;16.58;;;9.38;;
19623;SDS011;9959;49.798;9.928;2024-03-23T03:57:16;16.77;;;9.35;;
19623;SDS011;9959;49.798;9.928;2024-03-23T03:59:42;15.93;;;9.80;;
19623;SDS011;9959;49.798;9.928;2024-03-23T04:02:08;18.30;;;9.27;;
19623;SDS011;9959;49.798;9.928;2024-03-23T04:04:33;18.23;;;9.27;;
19623;SDS011;9959;49.798;9.928;2024-03-23T04:07:00;18.27;;;9.10;;
19623;SDS011;9959;49.798;9.928;2024-03-23T04:09:26;16.73;;;9.38;;
19623;SDS011;9959;49.798;9.928;2024-03-23T04:11:52;14.68;;;9.32;;
19623;SDS011;9959;49.798;9.928;2024-03-23T04:14:18;17.85;;;10.15;;
19623;SDS011;9959;49.798;9.928;2024-03-23T04:16:43;15.02;;;9.63;;
19623;SDS011;9959;49.798;9.928;2024-03-23T04:19:09;21.48;;;9.75;;
19623;SDS011;9959;49.798;9.928;2024-03-23T04:21:36;17.33;;;10.15;;
19623;SDS011;9959;49.798;9.928;2024-03-23T04:24:02;17.25;;;9.80;;
19623;SDS011;9959;49.798;9.928;2024-03-23T04:26:29;20.88;;;9.93;;
19623;SDS011;9959;49.798;9.928;2024-03-23T04:28:54;18.52;;;9.95;;
19623;SDS011;9959;49.798;9.928;2024-03-23T04:31:20;17.30;;;9.63;;
19623;SDS011;9959;49.798;9.928;2024-03-23T04:33:47;16.85;;;10.00;;
19623;SDS011;9959;49.798;9.928;2024-03-23T04:36:13;20.88;;;10.68;;
19623;SDS011;9959;49.798;9.928;2024-03-23T04:38:38;16.77;;;9.68;;
19623;SDS011;9959;49.798;9.928;2024-03-23T04:41:04;17.52;;;10.18;;
19623;SDS011;9959;49.798;9.928;2024-03-23T04:43:30;17.02;;;8.85;;
19623;SDS011;9959;49.798;9.928;2024-03-23T04:45:56;17.73;;;9.45;;
19623;SDS011;9959;49.798;9.928;2024-03-23T04:48:22;19.02;;;9.70;;
19623;SDS011;9959;49.798;9.928;2024-03-23T04:50:49;18.95;;;9.65;;
19623;SDS011;9959;49.798;9.928;2024-03-23T04:53:15;15.27;;;9.07;;
19623;SDS011;9959;49.798;9.928;2024-03-23T04:55:44;16.45;;;9.60;;
19623;SDS011;9959;49.798;9.928;2024-03-23T04:58:12;17.65;;;9.52;;
19623;SDS011;9959;49.798;9.928;2024-03-23T05:00:38;17.92;;;9.57;;
19623;SDS011;9959;49.798;9.928;2024-03-23T05:03:04;17.50;;;10.00;;
19623;SDS011;9959;49.798;9.928;2024-03-23T05:05:30;16.15;;;9.77;;
19623;SDS011;9959;49.798;9.928;2024-03-23T05:07:56;18.60;;;9.93;;
19623;SDS011;9959;49.798;9.928;2024-03-23T05:10:21;16.00;;;10.35;;
19623;SDS011;9959;49.798;9.928;2024-03-23T05:12:47;16.98;;;9.23;;
19623;SDS011;9959;49.798;9.928;2024-03-23T05:15:13;15.93;;;9.55;;
19623;SDS011;9959;49.798;9.928;2024-03-23T05:17:39;22.02;;;10.90;;
19623;SDS011;9959;49.798;9.928;2024-03-23T05:20:05;15.98;;;9.82;;
19623;SDS011;9959;49.798;9.928;2024-03-23T05:22:38;19.73;;;10.60;;
19623;SDS011;9959;49.798;9.928;2024-03-23T05:25:05;16.80;;;9.52;;
19623;SDS011;9959;49.798;9.928;2024-03-23T05:27:31;17.33;;;9.27;;
19623;SDS011;9959;49.798;9.928;2024-03-23T05:29:58;18.80;;;10.18;;
19623;SDS011;9959;49.798;9.928;2024-03-23T05:32:24;18.80;;;9.27;;
19623;SDS011;9959;49.798;9.928;2024-03-23T05:34:50;19.65;;;10.23;;
19623;SDS011;9959;49.798;9.928;2024-03-23T05:37:21;22.35;;;10.05;;
19623;SDS011;9959;49.798;9.928;2024-03-23T05:39:47;17.30;;;9.90;;
19623;SDS011;9959;49.798;9.928;2024-03-23T05:42:18;19.80;;;9.52;;
19623;SDS011;9959;49.798;9.928;2024-03-23T05:44:44;20.25;;;10.05;;
19623;SDS011;9959;49.798;9.928;2024-03-23T05:47:11;16.35;;;9.35;;
19623;SDS011;9959;49.798;9.928;2024-03-23T05:49:40;18.00;;;8.80;;
19623;SDS011;9959;49.798;9.928;2024-03-23T05:52:09;16.88;;;9.68;;
19623;SDS011;9959;49.798;9.928;2024-03-23T05:54:35;18.83;;;9.70;;
19623;SDS011;9959;49.798;9.928;2024-03-23T05:57:01;16.98;;;8.98;;
19623;SDS011;9959;49.798;9.928;2024-03-23T05:59:28;18.27;;;7.95;;
19623;SDS011;9959;49.798;9.928;2024-03-23T06:01:54;16.60;;;7.55;;
19623;SDS011;9959;49.798;9.928;2024-03-23T06:04:20;16.58;;;7.32;;
19623;SDS011;9959;49.798;9.928;2024-03-23T06:06:48;13.95;;;7.10;;
19623;SDS011;9959;49.798;9.928;2024-03-23T06:09:14;8.45;;;5.13;;
19623;SDS011;9959;49.798;9.928;2024-03-23T06:11:39;9.85;;;5.18;;
19623;SDS011;9959;49.798;9.928;2024-03-23T06:14:05;12.80;;;5.72;;
19623;SDS011;9959;49.798;9.928;2024-03-23T06:16:31;10.95;;;5.88;;
19623;SDS011;9959;49.798;9.928;2024-03-23T06:18:57;13.98;;;6.45;;
19623;SDS011;9959;49.798;9.928;2024-03-23T06:21:24;9.73;;;4.50;;
19623;SDS011;9959;49.798;9.928;2024-03-23T06:23:53;12.88;;;5.70;;
19623;SDS011;9959;49.798;9.928;2024-03-23T06:26:19;12.15;;;5.90;;
19623;SDS011;9959;49.798;9.928;2024-03-23T06:28:46;8.85;;;4.78;;
19623;SDS011;9959;49.798;9.928;2024-03-23T06:31:12;12.25;;;6.18;;
19623;SDS011;9959;49.798;9.928;2024-03-23T06:33:38;11.95;;;6.75;;
19623;SDS011;9959;49.798;9.928;2024-03-23T06:36:04;13.65;;;6.18;;
19623;SDS011;9959;49.798;9.928;2024-03-23T06:38:31;13.98;;;6.68;;
19623;SDS011;9959;49.798;9.928;2024-03-23T06:40:57;11.32;;;6.18;;
19623;SDS011;9959;49.798;9.928;2024-03-23T06:43:23;8.95;;;5.07;;
19623;SDS011;9959;49.798;9.928;2024-03-23T06:45:53;10.30;;;5.72;;
19623;SDS011;9959;49.798;9.928;2024-03-23T06:48:20;11.77;;;5.75;;
19623;SDS011;9959;49.798;9.928;2024-03-23T06:50:46;9.77;;;5.18;;
19623;SDS011;9959;49.798;9.928;2024-03-23T06:53:15;11.00;;;5.93;;
19623;SDS011;9959;49.798;9.928;2024-03-23T06:55:41;9.90;;;5.15;;
19623;SDS011;9959;49.798;9.928;2024-03-23T06:58:07;9.23;;;4.47;;
19623;SDS011;9959;49.798;9.928;2024-03-23T07:00:33;9.45;;;4.43;;
19623;SDS011;9959;49.798;9.928;2024-03-23T07:02:59;6.88;;;3.60;;
19623;SDS011;9959;49.798;9.928;2024-03-23T07:05:25;6.78;;;3.00;;
19623;SDS011;9959;49.798;9.928;2024-03-23T07:07:51;5.28;;;2.92;;
19623;SDS011;9959;49.798;9.928;2024-03-23T07:10:17;6.38;;;3.47;;
19623;SDS011;9959;49.798;9.928;2024-03-23T07:12:43;3.88;;;2.42;;
19623;SDS011;9959;49.798;9.928;2024-03-23T07:15:09;4.82;;;2.80;;
19623;SDS011;9959;49.798;9.928;2024-03-23T07:17:35;5.53;;;2.92;;
19623;SDS011;9959;49.798;9.928;2024-03-23T07:20:01;6.32;;;2.85;;
19623;SDS011;9959;49.798;9.928;2024-03-23T07:22:35;3.88;;;2.28;;
19623;SDS011;9959;49.798;9.928;2024-03-23T07:25:01;3.63;;;2.30;;
19623;SDS011;9959;49.798;9.928;2024-03-23T07:27:28;4.38;;;2.03;;
19623;SDS011;9959;49.798;9.928;2024-03-23T07:29:54;4.63;;;2.17;;
19623;SDS011;9959;49.798;9.928;2024-03-23T07:32:20;2.88;;;1.63;;
19623;SDS011;9959;49.798;9.928;2024-03-23T07:34:46;3.30;;;1.92;;
19623;SDS011;9959;49.798;9.928;2024-03-23T07:37:12;1.80;;;1.25;;
19623;SDS011;9959;49.798;9.928;2024-03-23T07:39:41;1.90;;;1.13;;
19623;SDS011;9959;49.798;9.928;2024-03-23T07:42:07;2.10;;;1.30;;
19623;SDS011;9959;49.798;9.928;2024-03-23T07:44:32;1.42;;;1.13;;
19623;SDS011;9959;49.798;9.928;2024-03-23T07:46:59;1.15;;;0.90;;
19623;SDS011;9959;49.798;9.928;2024-03-23T07:49:28;1.92;;;0.98;;
19623;SDS011;9959;49.798;9.928;2024-03-23T07:51:54;0.90;;;0.80;;
19623;SDS011;9959;49.798;9.928;2024-03-23T07:54:20;1.88;;;0.80;;
19623;SDS011;9959;49.798;9.928;2024-03-23T07:56:45;0.88;;;0.57;;
19623;SDS011;9959;49.798;9.928;2024-03-23T07:59:11;0.57;;;0.57;;
19623;SDS011;9959;49.798;9.928;2024-03-23T08:01:37;0.60;;;0.57;;
19623;SDS011;9959;49.798;9.928;2024-03-23T08:04:03;0.68;;;0.50;;
19623;SDS011;9959;49.798;9.928;2024-03-23T08:06:29;1.77;;;0.70;;
19623;SDS011;9959;49.798;9.928;2024-03-23T08:08:55;0.70;;;0.70;;
19623;SDS011;9959;49.798;9.928;2024-03-23T08:11:28;2.55;;;0.70;;
19623;SDS011;9959;49.798;9.928;2024-03-23T08:13:54;0.50;;;0.50;;
19623;SDS011;9959;49.798;9.928;2024-03-23T08:16:21;0.60;;;0.57;;
19623;SDS011;9959;49.798;9.928;2024-03-23T08:18:47;0.60;;;0.60;;
19623;SDS011;9959;49.798;9.928;2024-03-23T08:21:13;0.50;;;0.50;;
19623;SDS011;9959;49.798;9.928;2024-03-23T08:23:39;0.50;;;0.50;;
19623;SDS011;9959;49.798;9.928;2024-03-23T08:26:06;3.45;;;0.63;;
19623;SDS011;9959;49.798;9.928;2024-03-23T08:28:34;1.08;;;0.63;;
19623;SDS011;9959;49.798;9.928;2024-03-23T08:31:03;0.50;;;0.50;;
19623;SDS011;9959;49.798;9.928;2024-03-23T08:33:32;0.70;;;0.50;;
19623;SDS011;9959;49.798;9.928;2024-03-23T08:35:59;0.52;;;0.52;;
19623;SDS011;9959;49.798;9.928;2024-03-23T08:38:26;0.70;;;0.70;;
19623;SDS011;9959;49.798;9.928;2024-03-23T08:40:56;0.60;;;0.60;;
19623;SDS011;9959;49.798;9.928;2024-03-23T08:43:28;0.60;;;0.60;;
19623;SDS011;9959;49.798;9.928;2024-03-23T08:46:04;0.70;;;0.70;;
19623;SDS011;9959;49.798;9.928;2024-03-23T08:48:38;0.50;;;0.50;;
19623;SDS011;9959;49.798;9.928;2024-03-23T08:51:06;1.30;;;0.80;;
19623;SDS011;9959;49.798;9.928;2024-03-23T08:53:37;0.57;;;0.57;;
19623;SDS011;9959;49.798;9.928;2024-03-23T08:56:04;1.50;;;1.08;;
19623;SDS011;9959;49.798;9.928;2024-03-23T08:58:31;3.00;;;0.98;;
19623;SDS011;9959;49.798;9.928;2024-03-23T09:03:32;1.83;;;1.00;;
19623;SDS011;9959;49.798;9.928;2024-03-23T09:05:58;2.10;;;1.00;;
19623;SDS011;9959;49.798;9.928;2024-03-23T09:08:25;2.78;;;0.90;;
19623;SDS011;9959;49.798;9.928;2024-03-23T09:10:51;1.67;;;1.15;;
19623;SDS011;9959;49.798;9.928;2024-03-23T09:13:17;2.05;;;0.82;;
19623;SDS011;9959;49.798;9.928;2024-03-23T09:15:47;3.03;;;1.00;;
19623;SDS011;9959;49.798;9.928;2024-03-23T09:18:13;2.13;;;0.95;;
19623;SDS011;9959;49.798;9.928;2024-03-23T09:20:39;6.65;;;1.10;;
19623;SDS011;9959;49.798;9.928;2024-03-23T09:23:05;1.55;;;0.80;;
19623;SDS011;9959;49.798;9.928;2024-03-23T09:25:31;3.28;;;1.10;;
19623;SDS011;9959;49.798;9.928;2024-03-23T09:27:57;3.50;;;1.30;;
19623;SDS011;9959;49.798;9.928;2024-03-23T09:30:23;3.03;;;1.58;;
19623;SDS011;9959;49.798;9.928;2024-03-23T09:32:49;4.50;;;0.98;;
19623;SDS011;9959;49.798;9.928;2024-03-23T09:35:17;3.50;;;1.70;;
19623;SDS011;9959;49.798;9.928;2024-03-23T09:37:43;4.25;;;1.67;;
19623;SDS011;9959;49.798;9.928;2024-03-23T09:40:11;5.35;;;1.60;;
19623;SDS011;9959;49.798;9.928;2024-03-23T09:42:37;6.78;;;1.50;;
19623;SDS011;9959;49.798;9.928;2024-03-23T09:45:05;3.85;;;1.85;;
19623;SDS011;9959;49.798;9.928;2024-03-23T09:47:36;6.53;;;1.75;;
19623;SDS011;9959;49.798;9.928;2024-03-23T09:50:03;5.45;;;1.50;;
19623;SDS011;9959;49.798;9.928;2024-03-23T09:52:33;4.22;;;1.48;;
19623;SDS011;9959;49.798;9.928;2024-03-23T09:54:58;6.50;;;2.03;;
19623;SDS011;9959;49.798;9.928;2024-03-23T09:57:24;6.13;;;2.05;;
19623;SDS011;9959;49.798;9.928;2024-03-23T09:59:50;6.95;;;1.63;;
19623;SDS011;9959;49.798;9.928;2024-03-23T10:02:16;6.82;;;2.00;;
19623;SDS011;9959;49.798;9.928;2024-03-23T10:04:42;2.63;;;1.20;;
19623;SDS011;9959;49.798;9.928;2024-03-23T10:07:20;2.33;;;1.67;;
19623;SDS011;9959;49.798;9.928;2024-03-23T10:09:50;6.55;;;1.80;;
19623;SDS011;9959;49.798;9.928;2024-03-23T10:12:17;4.60;;;1.85;;
19623;SDS011;9959;49.798;9.928;2024-03-23T10:14:44;5.35;;;1.77;;
19623;SDS011;9959;49.798;9.928;2024-03-23T10:17:14;4.15;;;1.85;;
19623;SDS011;9959;49.798;9.928;2024-03-23T10:19:44;2.90;;;1.55;;
19623;SDS011;9959;49.798;9.928;2024-03-23T10:22:17;8.45;;;2.53;;
19623;SDS011;9959;49.798;9.928;2024-03-23T10:24:44;3.75;;;1.77;;
19623;SDS011;9959;49.798;9.928;2024-03-23T10:27:17;3.63;;;1.83;;
19623;SDS011;9959;49.798;9.928;2024-03-23T10:29:45;2.58;;;1.70;;
19623;SDS011;9959;49.798;9.928;2024-03-23T10:32:11;6.50;;;2.10;;
19623;SDS011;9959;49.798;9.928;2024-03-23T10:34:38;6.88;;;1.88;;
19623;SDS011;9959;49.798;9.928;2024-03-23T10:37:04;3.97;;;2.03;;
19623;SDS011;9959;49.798;9.928;2024-03-23T10:39:35;7.25;;;2.10;;
19623;SDS011;9959;49.798;9.928;2024-03-23T10:42:05;8.00;;;2.60;;
19623;SDS011;9959;49.798;9.928;2024-03-23T10:44:38;5.00;;;2.17;;
19623;SDS011;9959;49.798;9.928;2024-03-23T10:47:04;8.88;;;2.58;;
19623;SDS011;9959;49.798;9.928;2024-03-23T10:49:35;6.55;;;2.03;;
19623;SDS011;9959;49.798;9.928;2024-03-23T10:52:04;7.50;;;2.45;;
19623;SDS011;9959;49.798;9.928;2024-03-23T10:54:31;5.13;;;2.15;;
19623;SDS011;9959;49.798;9.928;2024-03-23T10:59:45;4.63;;;2.10;;
19623;SDS011;9959;49.798;9.928;2024-03-23T11:02:21;8.23;;;2.75;;
19623;SDS011;9959;49.798;9.928;2024-03-23T11:04:47;7.82;;;2.60;;
19623;SDS011;9959;49.798;9.928;2024-03-23T11:09:57;5.55;;;2.20;;
19623;SDS011;9959;49.798;9.928;2024-03-23T11:14:50;6.00;;;2.35;;
19623;SDS011;9959;49.798;9.928;2024-03-23T11:17:17;10.07;;;2.72;;
19623;SDS011;9959;49.798;9.928;2024-03-23T11:19:44;7.15;;;3.10;;
19623;SDS011;9959;49.798;9.928;2024-03-23T11:25:25;5.25;;;2.38;;
19623;SDS011;9959;49.798;9.928;2024-03-23T11:27:52;6.07;;;2.42;;
19623;SDS011;9959;49.798;9.928;2024-03-23T11:30:19;6.78;;;2.50;;
19623;SDS011;9959;49.798;9.928;2024-03-23T11:32:58;5.95;;;2.67;;
19623;SDS011;9959;49.798;9.928;2024-03-23T11:38:04;4.45;;;2.10;;
19623;SDS011;9959;49.798;9.928;2024-03-23T11:40:29;6.18;;;2.53;;
19623;SDS011;9959;49.798;9.928;2024-03-23T11:42:58;7.20;;;2.40;;
19623;SDS011;9959;49.798;9.928;2024-03-23T11:45:25;8.82;;;2.28;;
19623;SDS011;9959;49.798;9.928;2024-03-23T11:50:38;6.95;;;2.53;;
19623;SDS011;9959;49.798;9.928;2024-03-23T11:53:08;6.22;;;2.28;;
19623;SDS011;9959;49.798;9.928;2024-03-23T11:58:22;5.65;;;2.30;;
19623;SDS011;9959;49.798;9.928;2024-03-23T12:00:49;6.10;;;2.35;;
19623;SDS011;9959;49.798;9.928;2024-03-23T12:03:21;6.38;;;2.30;;
19623;SDS011;9959;49.798;9.928;2024-03-23T12:06:00;5.28;;;2.47;;
19623;SDS011;9959;49.798;9.928;2024-03-23T12:11:15;5.78;;;2.38;;
19623;SDS011;9959;49.798;9.928;2024-03-23T12:13:43;6.03;;;2.40;;
19623;SDS011;9959;49.798;9.928;2024-03-23T12:16:17;8.70;;;2.40;;
19623;SDS011;9959;49.798;9.928;2024-03-23T12:18:46;5.63;;;1.98;;
19623;SDS011;9959;49.798;9.928;2024-03-23T12:21:14;7.57;;;2.28;;
19623;SDS011;9959;49.798;9.928;2024-03-23T12:23:42;5.22;;;2.15;;
19623;SDS011;9959;49.798;9.928;2024-03-23T12:26:10;6.40;;;2.30;;
19623;SDS011;9959;49.798;9.928;2024-03-23T12:28:37;5.78;;;2.33;;
19623;SDS011;9959;49.798;9.928;2024-03-23T12:31:04;8.43;;;2.03;;
19623;SDS011;9959;49.798;9.928;2024-03-23T12:33:30;7.95;;;2.20;;
19623;SDS011;9959;49.798;9.928;2024-03-23T12:35:57;6.63;;;2.20;;
19623;SDS011;9959;49.798;9.928;2024-03-23T12:38:22;8.20;;;2.13;;
19623;SDS011;9959;49.798;9.928;2024-03-23T12:40:49;8.73;;;1.88;;
19623;SDS011;9959;49.798;9.928;2024-03-23T12:43:15;11.07;;;2.70;;
19623;SDS011;9959;49.798;9.928;2024-03-23T12:45:48;5.25;;;2.38;;
19623;SDS011;9959;49.798;9.928;2024-03-23T12:48:14;7.57;;;2.70;;
19623;SDS011;9959;49.798;9.928;2024-03-23T12:50:40;6.95;;;2.38;;
19623;SDS011;9959;49.798;9.928;2024-03-23T12:53:06;7.03;;;2.70;;
19623;SDS011;9959;49.798;9.928;2024-03-23T12:55:34;6.28;;;2.55;;
19623;SDS011;9959;49.798;9.928;2024-03-23T12:58:01;8.60;;;2.47;;
19623;SDS011;9959;49.798;9.928;2024-03-23T13:00:27;3.35;;;1.65;;
19623;SDS011;9959;49.798;9.928;2024-03-23T13:02:53;4.45;;;1.80;;
19623;SDS011;9959;49.798;9.928;2024-03-23T13:05:19;7.20;;;2.05;;
19623;SDS011;9959;49.798;9.928;2024-03-23T13:07:44;4.88;;;1.90;;
19623;SDS011;9959;49.798;9.928;2024-03-23T13:10:10;7.13;;;2.05;;
19623;SDS011;9959;49.798;9.928;2024-03-23T13:12:36;6.38;;;1.88;;
19623;SDS011;9959;49.798;9.928;2024-03-23T13:15:02;5.00;;;1.77;;
19623;SDS011;9959;49.798;9.928;2024-03-23T13:17:28;5.28;;;1.90;;
19623;SDS011;9959;49.798;9.928;2024-03-23T13:19:54;6.35;;;2.55;;
19623;SDS011;9959;49.798;9.928;2024-03-23T13:22:21;3.92;;;2.08;;
19623;SDS011;9959;49.798;9.928;2024-03-23T13:24:47;5.28;;;2.08;;
19623;SDS011;9959;49.798;9.928;2024-03-23T13:27:13;5.45;;;2.13;;
19623;SDS011;9959;49.798;9.928;2024-03-23T13:29:39;6.00;;;2.13;;
19623;SDS011;9959;49.798;9.928;2024-03-23T13:32:04;5.90;;;1.92;;
19623;SDS011;9959;49.798;9.928;2024-03-23T13:34:31;5.70;;;2.00;;
19623;SDS011;9959;49.798;9.928;2024-03-23T13:36:58;4.90;;;1.88;;
19623;SDS011;9959;49.798;9.928;2024-03-23T13:39:24;5.72;;;2.20;;
19623;SDS011;9959;49.798;9.928;2024-03-23T13:41:52;5.25;;;2.35;;
19623;SDS011;9959;49.798;9.928;2024-03-23T13:44:19;4.78;;;2.35;;
19623;SDS011;9959;49.798;9.928;2024-03-23T13:46:44;5.25;;;2.22;;
19623;SDS011;9959;49.798;9.928;2024-03-23T13:49:25;5.03;;;1.88;;
19623;SDS011;9959;49.798;9.928;2024-03-23T13:51:55;5.13;;;2.00;;
19623;SDS011;9959;49.798;9.928;2024-03-23T13:54:25;12.82;;;2.30;;
19623;SDS011;9959;49.798;9.928;2024-03-23T13:56:51;8.18;;;2.65;;
19623;SDS011;9959;49.798;9.928;2024-03-23T13:59:18;6.72;;;2.33;;
19623;SDS011;9959;49.798;9.928;2024-03-23T14:01:44;5.72;;;2.40;;
19623;SDS011;9959;49.798;9.928;2024-03-23T14:04:15;7.40;;;2.75;;
19623;SDS011;9959;49.798;9.928;2024-03-23T14:06:53;9.60;;;1.90;;
19623;SDS011;9959;49.798;9.928;2024-03-23T14:09:20;2.95;;;1.60;;
19623;SDS011;9959;49.798;9.928;2024-03-23T14:11:48;6.50;;;2.10;;
19623;SDS011;9959;49.798;9.928;2024-03-23T14:14:19;5.53;;;2.60;;
19623;SDS011;9959;49.798;9.928;2024-03-23T14:16:48;5.60;;;2.30;;
19623;SDS011;9959;49.798;9.928;2024-03-23T14:19:14;3.42;;;1.95;;
19623;SDS011;9959;49.798;9.928;2024-03-23T14:21:42;8.18;;;2.25;;
19623;SDS011;9959;49.798;9.928;2024-03-23T14:24:08;6.93;;;2.53;;
19623;SDS011;9959;49.798;9.928;2024-03-23T14:26:35;5.57;;;1.70;;
19623;SDS011;9959;49.798;9.928;2024-03-23T14:29:02;4.70;;;1.95;;
19623;SDS011;9959;49.798;9.928;2024-03-23T14:31:31;4.68;;;1.80;;
19623;SDS011;9959;49.798;9.928;2024-03-23T14:33:58;4.15;;;1.60;;
19623;SDS011;9959;49.798;9.928;2024-03-23T14:36:26;3.47;;;1.38;;
19623;SDS011;9959;49.798;9.928;2024-03-23T14:38:52;4.85;;;1.65;;
19623;SDS011;9959;49.798;9.928;2024-03-23T14:41:18;2.92;;;1.58;;
19623;SDS011;9959;49.798;9.928;2024-03-23T14:43:45;6.93;;;1.65;;
19623;SDS011;9959;49.798;9.928;2024-03-23T14:46:14;6.65;;;1.67;;
19623;SDS011;9959;49.798;9.928;2024-03-23T14:48:42;3.42;;;1.40;;
19623;SDS011;9959;49.798;9.928;2024-03-23T14:51:09;3.20;;;1.40;;
19623;SDS011;9959;49.798;9.928;2024-03-23T14:53:37;5.65;;;1.58;;
19623;SDS011;9959;49.798;9.928;2024-03-23T14:56:05;4.53;;;1.42;;
19623;SDS011;9959;49.798;9.928;2024-03-23T14:58:33;5.05;;;1.40;;
19623;SDS011;9959;49.798;9.928;2024-03-23T15:01:02;7.82;;;1.40;;
19623;SDS011;9959;49.798;9.928;2024-03-23T15:03:30;3.55;;;1.23;;
19623;SDS011;9959;49.798;9.928;2024-03-23T15:05:56;2.97;;;1.10;;
19623;SDS011;9959;49.798;9.928;2024-03-23T15:08:24;5.22;;;1.33;;
19623;SDS011;9959;49.798;9.928;2024-03-23T15:10:50;4.20;;;1.38;;
19623;SDS011;9959;49.798;9.928;2024-03-23T15:13:17;1.80;;;1.20;;
19623;SDS011;9959;49.798;9.928;2024-03-23T15:15:44;2.65;;;1.45;;
19623;SDS011;9959;49.798;9.928;2024-03-23T15:18:11;4.30;;;1.63;;
19623;SDS011;9959;49.798;9.928;2024-03-23T15:20:42;3.35;;;1.30;;
19623;SDS011;9959;49.798;9.928;2024-03-23T15:23:17;2.90;;;1.67;;
19623;SDS011;9959;49.798;9.928;2024-03-23T15:25:43;1.35;;;1.10;;
19623;SDS011;9959;49.798;9.928;2024-03-23T15:28:09;1.80;;;1.10;;
19623;SDS011;9959;49.798;9.928;2024-03-23T15:30:35;4.95;;;1.42;;
19623;SDS011;9959;49.798;9.928;2024-03-23T15:33:01;1.83;;;1.10;;
19623;SDS011;9959;49.798;9.928;2024-03-23T15:35:27;1.23;;;1.05;;
19623;SDS011;9959;49.798;9.928;2024-03-23T15:37:54;2.50;;;1.27;;
19623;SDS011;9959;49.798;9.928;2024-03-23T15:40:20;2.30;;;1.30;;
19623;SDS011;9959;49.798;9.928;2024-03-23T15:42:46;4.43;;;1.60;;
19623;SDS011;9959;49.798;9.928;2024-03-23T15:45:14;2.47;;;1.40;;
19623;SDS011;9959;49.798;9.928;2024-03-23T15:47:40;3.22;;;1.52;;
19623;SDS011;9959;49.798;9.928;2024-03-23T15:50:06;1.55;;;1.10;;
19623;SDS011;9959;49.798;9.928;2024-03-23T15:52:35;1.73;;;1.20;;
19623;SDS011;9959;49.798;9.928;2024-03-23T15:55:02;4.05;;;1.35;;
19623;SDS011;9959;49.798;9.928;2024-03-23T15:57:34;2.60;;;1.20;;
19623;SDS011;9959;49.798;9.928;2024-03-23T16:00:01;3.85;;;1.50;;
19623;SDS011;9959;49.798;9.928;2024-03-23T16:02:28;3.25;;;1.65;;
19623;SDS011;9959;49.798;9.928;2024-03-23T16:04:54;3.42;;;1.25;;
19623;SDS011;9959;49.798;9.928;2024-03-23T16:07:20;1.20;;;1.10;;
19623;SDS011;9959;49.798;9.928;2024-03-23T16:09:49;2.35;;;1.10;;